AirNav   Free Bose QuietComfort 20
 
 1213 users online  

9NJ5 Stallone Airport
Harrisonville, New Jersey, USA

GOING TO HARRISONVILLE?


FAA INFORMATION EFFECTIVE 05 DECEMBER 2019

Location

FAA Identifier: 9NJ5
Lat/Long: 39-40-48.4090N 075-15-08.6680W
39-40.806817N 075-15.144467W
39.6801136,-75.2524078
(estimated)
Elevation: 80 ft. / 24 m (estimated)
Variation: 11W (1985)
From city: 1 mile SE of HARRISONVILLE, NJ
Time zone: UTC -5 (UTC -4 during Daylight Saving Time)
Zip code: 08039

Airport Operations

Airport use: Private use. Permission required prior to landing
Activation date: 02/1978
Control tower: no
ARTCC: NEW YORK CENTER
FSS: MILLVILLE FLIGHT SERVICE STATION
Attendance: UNATNDD
Wind indicator: yes
Segmented circle: no

Airport Communications

WX ASOS at PHL (12 nm N): PHONE 215-492-9617
WX ASOS at ILG (16 nm W): PHONE 302-328-1536

Nearby radio navigation aids

VOR radial/distance  VOR name  Freq  Var
OODr052/3.5WOODSTOWN VORTAC112.8010W
VCNr313/15.7CEDAR LAKE VOR/DME115.2010W
DQOr100/16.4DUPONT VORTAC114.0010W
MXEr136/24.0MODENA VORTAC113.2009W
ENOr033/29.5SMYRNA VORTAC111.4009W
ACYr303/34.0ATLANTIC CITY VORTAC108.6010W
PTWr165/35.5POTTSTOWN VORTAC116.5009W
GXUr249/36.1MC GUIRE VORTAC110.6012W
ARDr215/37.9YARDLEY VOR/DME108.2010W
CYNr268/38.7COYLE VORTAC113.4010W

 
NDB name  Hdg/Dist  Freq  Var  ID
RAINBOW352/16.636311WRNB .-. -. -...
AMBLER189/26.827512WING .. -. --.

Airport Services

Runway Information

Runway 11/29

Dimensions: 1350 x 150 ft. / 411 x 46 m
Surface: turf
RUNWAY 11  RUNWAY 29
Traffic pattern: leftleft

Airport Ownership and Management from official FAA records

Ownership: Privately-owned
Owner: GEORGE R. STALLONE
PO BOX 4 HARRISONVILLE-FERREL
HARRISONVILLE, NJ 08039
Phone 609-478-2510
Manager: GEORGE R. STALLONE
PO BOX 4 HARRISONVILLE-FERREL
HARRISONVILLE, NJ 08039
Phone 609-478-2510

Airport Operational Statistics

Aircraft based on the field: 1
Single engine airplanes: 1
    

Additional Remarks

FOR CD CTC PHILADELPHIA APCH AT 800-354-9884.

Instrument Procedures

There are no published instrument procedures at 9NJ5.

Some nearby airports with instrument procedures:

7N7 - Spitfire Aerodrome (7 nm NW)
17N - Cross Keys Airport (10 nm E)
KPHL - Philadelphia International Airport (12 nm N)
29N - Kroelinger Airport (13 nm SE)
19N - Camden County Airport (15 nm NE)
KILG - New Castle Airport (16 nm W)
 
Loc | Ops | Rwys | IFR | FBO | Links
Com | Nav | Svcs | Stats | Notes
Area around 9NJ5 (Stallone Airport)
 
Road maps at: MapQuest Bing Google
 
Aerial photo
No photo
 
Sectional chart

 
Airport distance calculator
Flying to Stallone Airport? Find the distance to fly.

From to 9NJ5

Sunrise and sunset
Times for 09-Dec-2019
 Local
(UTC-5)
 Zulu
(UTC)
Morning civil twilight06:4111:41
Sunrise07:1112:11
Sunset16:3621:36
Evening civil twilight17:0622:06

Current date and time
Zulu (UTC)  09-Dec-2019 22:31:03
Local (UTC-5)  09-Dec-2019 17:31:03
 
METAR
KPHL 
11nm N 
092154Z 19006KT 4SM RA BR BKN008 BKN025 OVC060 09/08 A2987 RMK AO2 SLP115 BKN008 V SCT P0020 T00940083 $
KILG 
16nm W 
092207Z 18006KT 3SM +RA BR FEW003 BKN027 OVC037 09/09 A2987 RMK AO2 P0007 T00940089
KMIV 
20nm SE 
092205Z AUTO VRB03KT 3SM -RA BR OVC003 11/10 A2988 RMK AO2 P0002 T01060100
TAF
KPHL 
11nm N 
091956Z 0920/1024 19009KT 3SM -RA BR BKN006 OVC015 WS020/21040KT FM100400 22010G18KT 3SM -SHRA OVC008 FM100800 22012G22KT P6SM OVC015 FM101600 23010G19KT 6SM -SHRA OVC010 FM102100 28009KT P6SM OVC040
KILG 
16nm W 
091737Z 0918/1018 20007KT 3SM RA BR OVC003 WS020/21040KT FM092000 19009KT 2SM -RA BR OVC003 WS020/21040KT FM100100 20011G20KT 3SM -SHRA BR OVC008 FM100700 22012G21KT P6SM OVC025 FM101600 23010KT 6SM -SHRA OVC015
NOTAMs
Click for the latest NOTAMs
NOTAMs are issued by the DoD/FAA and will open in a separate window not controlled by AirNav.

 

 
 

Would you like to see your business listed on this page?

 If your business provides an interesting product or service to pilots, flight crews, aircraft, or users of the Stallone Airport, you should consider listing it here.  To start the listing process, click on the button below
 
Add a business
 

Other Pages about Stallone Airport

Update a link
 
Copyright © AirNav, LLC. All rights reserved. Privacy Policy  Contact